You are listening to:
MMMX Twr/App #1 - Mexico City, Mexico

MMMX 161413Z 09004KT 7SM SKC 16/M02 A3040 NOSIG RMK HZY

If stream doesn't start automatically press the play button
If stream stops then reload player then press play